createdAt,value
2022-08-22T00:00:23.056Z,3.97
2022-08-22T00:02:43.110Z,2.10
2022-08-22T00:03:04.340Z,1.90
2022-08-22T00:03:28.607Z,4.00
2022-08-22T00:06:07.468Z,3.70
2022-08-22T00:08:42.587Z,3.33
2022-08-22T00:11:15.740Z,4.03
2022-08-22T00:13:52.687Z,3.73
2022-08-22T00:16:36.564Z,4.00
2022-08-22T00:19:16.803Z,3.80
2022-08-22T00:21:52.285Z,4.03
2022-08-22T00:24:25.919Z,3.20
2022-08-22T00:26:59.119Z,3.77
2022-08-22T00:29:39.522Z,3.30
2022-08-22T00:32:14.298Z,3.40
2022-08-22T00:34:49.534Z,3.80
2022-08-22T00:37:25.881Z,3.60
2022-08-22T00:40:03.461Z,4.00
2022-08-22T00:43:00.951Z,3.20
2022-08-22T00:46:08.642Z,3.73
2022-08-22T00:49:10.630Z,4.07
2022-08-22T00:52:10.430Z,3.90
2022-08-22T00:54:56.802Z,3.90
2022-08-22T00:57:36.325Z,4.37
2022-08-22T01:00:14.051Z,3.80
2022-08-22T01:03:13.823Z,3.67
2022-08-22T01:05:59.009Z,3.60
2022-08-22T01:08:43.302Z,3.63
2022-08-22T01:11:25.762Z,3.47
2022-08-22T01:14:08.713Z,4.17
2022-08-22T01:16:56.212Z,4.13
2022-08-22T01:20:03.876Z,3.77
2022-08-22T01:23:07.686Z,4.10
2022-08-22T01:26:21.716Z,4.17
2022-08-22T01:29:30.009Z,3.83
2022-08-22T01:32:38.882Z,3.50
2022-08-22T01:35:34.562Z,3.63
2022-08-22T01:38:45.182Z,4.10
2022-08-22T01:41:52.487Z,3.90
2022-08-22T01:44:37.809Z,3.67
2022-08-22T01:47:12.426Z,3.90
2022-08-22T01:49:45.069Z,3.53
2022-08-22T01:52:19.594Z,4.47
2022-08-22T01:54:54.626Z,4.03
2022-08-22T01:57:23.866Z,4.10
2022-08-22T01:59:56.256Z,4.23
2022-08-22T02:02:47.842Z,4.20
2022-08-22T02:05:26.415Z,4.23
2022-08-22T02:08:00.253Z,4.20
2022-08-22T02:10:44.433Z,4.30
2022-08-22T02:13:26.506Z,4.40
2022-08-22T02:16:07.693Z,4.80
2022-08-22T02:18:48.502Z,4.63
2022-08-22T02:21:21.861Z,4.40
2022-08-22T02:23:56.580Z,5.03
2022-08-22T02:26:29.635Z,5.03
2022-08-22T02:29:01.609Z,4.40
2022-08-22T02:31:41.108Z,4.70
2022-08-22T02:34:28.877Z,4.60
2022-08-22T02:37:07.886Z,4.17
2022-08-22T02:39:42.352Z,4.47
2022-08-22T02:42:22.317Z,4.37
2022-08-22T02:44:58.580Z,4.23
2022-08-22T02:47:33.856Z,4.50
2022-08-22T02:50:13.142Z,4.23
2022-08-22T02:52:55.529Z,4.70
2022-08-22T02:55:37.153Z,4.50
2022-08-22T02:58:09.716Z,4.53
2022-08-22T03:00:48.402Z,4.10
2022-08-22T03:03:21.621Z,4.47
2022-08-22T03:06:01.101Z,4.70
2022-08-22T03:08:32.451Z,4.67
2022-08-22T03:11:12.375Z,5.07
2022-08-22T03:13:53.444Z,4.93
2022-08-22T03:16:29.346Z,4.93
2022-08-22T03:19:04.089Z,5.10
2022-08-22T03:21:37.773Z,4.80
2022-08-22T03:24:12.643Z,5.87
2022-08-22T03:26:49.203Z,5.00
2022-08-22T03:29:22.627Z,5.43
2022-08-22T03:32:11.210Z,4.80
2022-08-22T03:34:54.319Z,5.87
2022-08-22T03:37:27.586Z,4.77
2022-08-22T03:40:01.970Z,5.03
2022-08-22T03:43:11.331Z,4.87
2022-08-22T03:46:17.801Z,4.57
2022-08-22T03:49:13.173Z,4.90
2022-08-22T03:51:55.543Z,5.07
2022-08-22T03:55:07.178Z,4.50
2022-08-22T03:57:52.029Z,4.90
2022-08-22T04:00:45.591Z,5.13
2022-08-22T04:03:42.673Z,4.90
2022-08-22T04:06:42.255Z,5.40
2022-08-22T04:09:35.505Z,4.37
2022-08-22T04:12:28.609Z,4.50
2022-08-22T04:15:50.973Z,5.17
2022-08-22T04:18:37.842Z,5.33
2022-08-22T04:21:31.292Z,5.40
2022-08-22T04:24:14.560Z,6.37
2022-08-22T04:26:48.739Z,6.00
2022-08-22T04:29:22.265Z,6.13
2022-08-22T04:31:57.081Z,5.40
2022-08-22T04:34:37.473Z,6.07
2022-08-22T04:37:14.427Z,5.33
2022-08-22T04:39:48.915Z,5.73
2022-08-22T04:42:36.694Z,6.03
2022-08-22T04:45:10.302Z,6.50
2022-08-22T04:47:42.309Z,6.20
2022-08-22T04:50:21.166Z,6.00
2022-08-22T04:53:02.294Z,5.80
2022-08-22T04:55:36.946Z,5.67
2022-08-22T04:58:19.539Z,5.90
2022-08-22T05:01:05.328Z,5.43
2022-08-22T05:03:39.119Z,5.97
2022-08-22T05:06:13.358Z,6.37
2022-08-22T05:08:42.876Z,5.90
2022-08-22T05:11:13.001Z,5.93
2022-08-22T05:13:44.458Z,5.77
2022-08-22T05:16:16.179Z,6.17
2022-08-22T05:18:48.396Z,6.37
2022-08-22T05:21:21.537Z,5.70
2022-08-22T05:23:52.716Z,6.27
2022-08-22T05:26:22.026Z,5.97
2022-08-22T05:28:53.452Z,5.50
2022-08-22T05:31:27.380Z,6.17
2022-08-22T05:34:01.749Z,5.97
2022-08-22T05:36:35.748Z,5.90
2022-08-22T05:39:08.647Z,5.77
2022-08-22T05:41:38.800Z,6.07
2022-08-22T05:44:14.097Z,5.57
2022-08-22T05:46:45.390Z,6.10
2022-08-22T05:49:19.517Z,5.77
2022-08-22T05:52:03.242Z,5.63
2022-08-22T05:54:34.816Z,5.20
2022-08-22T05:57:12.146Z,5.50
2022-08-22T05:59:43.334Z,5.00
2022-08-22T06:02:17.779Z,6.17
2022-08-22T06:04:51.795Z,5.50
2022-08-22T06:07:26.865Z,5.07
2022-08-22T06:10:18.584Z,5.47
2022-08-22T06:12:54.387Z,4.77
2022-08-22T06:15:28.957Z,4.30
2022-08-22T06:18:01.550Z,4.27
2022-08-22T06:20:33.865Z,4.23
2022-08-22T06:23:04.411Z,4.00
2022-08-22T06:25:34.794Z,3.93
2022-08-22T06:28:08.108Z,3.53
2022-08-22T06:30:37.888Z,4.17
2022-08-22T06:33:12.797Z,3.80
2022-08-22T06:36:02.792Z,3.60
2022-08-22T06:38:49.697Z,3.50
2022-08-22T06:41:18.128Z,3.27
2022-08-22T06:43:46.041Z,3.30
2022-08-22T06:46:16.708Z,3.10
2022-08-22T06:48:45.568Z,2.77
2022-08-22T06:51:15.718Z,2.93
2022-08-22T06:53:49.862Z,2.90
2022-08-22T06:56:24.190Z,3.40
2022-08-22T06:58:56.290Z,3.07
2022-08-22T07:01:28.073Z,2.60
2022-08-22T07:04:00.084Z,3.40
2022-08-22T07:06:32.434Z,2.87
2022-08-22T07:09:05.762Z,3.10
2022-08-22T07:11:38.916Z,3.10
2022-08-22T07:14:11.128Z,2.97
2022-08-22T07:16:43.426Z,2.87
2022-08-22T07:19:23.451Z,2.57
2022-08-22T07:21:51.978Z,2.90
2022-08-22T07:24:25.452Z,3.00
2022-08-22T07:27:08.694Z,3.00
2022-08-22T07:29:46.661Z,3.20
2022-08-22T07:32:19.052Z,2.93
2022-08-22T07:35:08.541Z,3.00
2022-08-22T07:37:52.684Z,2.63
2022-08-22T07:40:28.205Z,2.80
2022-08-22T07:43:01.856Z,2.63
2022-08-22T07:45:37.354Z,3.00
2022-08-22T07:48:26.615Z,2.70
2022-08-22T07:51:08.287Z,2.80
2022-08-22T07:53:41.127Z,2.73
2022-08-22T07:56:15.446Z,3.10
2022-08-22T07:58:45.566Z,2.90
2022-08-22T08:01:18.658Z,2.87
2022-08-22T08:03:53.294Z,2.90
2022-08-22T08:06:23.127Z,2.70
2022-08-22T08:08:52.967Z,2.37
2022-08-22T08:11:25.691Z,2.90
2022-08-22T08:13:58.822Z,2.73
2022-08-22T08:16:31.765Z,2.73
2022-08-22T08:19:02.412Z,2.80
2022-08-22T08:21:34.335Z,3.10
2022-08-22T08:24:03.714Z,3.30
2022-08-22T08:26:36.329Z,2.70
2022-08-22T08:29:08.054Z,3.10
2022-08-22T08:31:44.800Z,3.03
2022-08-22T08:34:18.797Z,3.27
2022-08-22T08:36:53.157Z,2.97
2022-08-22T08:39:28.555Z,2.80
2022-08-22T08:42:20.246Z,2.80
2022-08-22T08:45:18.264Z,3.17
2022-08-22T08:48:05.086Z,2.97
2022-08-22T08:51:02.149Z,3.27
2022-08-22T08:53:53.642Z,3.17
2022-08-22T08:56:30.776Z,3.27
2022-08-22T08:59:13.351Z,3.00
2022-08-22T09:02:20.686Z,3.17
2022-08-22T09:05:19.505Z,2.70
2022-08-22T09:08:16.855Z,3.00
2022-08-22T09:11:28.858Z,3.20
2022-08-22T09:14:12.737Z,2.93
2022-08-22T09:17:03.862Z,2.60
2022-08-22T09:19:57.763Z,3.03
2022-08-22T09:22:51.039Z,3.07
2022-08-22T09:25:24.710Z,2.83
2022-08-22T09:28:01.495Z,2.80
2022-08-22T09:30:46.970Z,2.60
2022-08-22T09:33:25.319Z,2.70
2022-08-22T09:36:01.007Z,3.03
2022-08-22T09:38:48.286Z,2.80
2022-08-22T09:41:36.346Z,2.63
2022-08-22T09:44:16.342Z,2.60
2022-08-22T09:46:58.861Z,3.33
2022-08-22T09:49:38.556Z,2.80
2022-08-22T09:52:15.647Z,2.70
2022-08-22T09:55:08.596Z,2.63
2022-08-22T09:57:41.194Z,2.43
2022-08-22T10:00:22.456Z,2.30
2022-08-22T10:03:09.381Z,2.77
2022-08-22T10:05:46.333Z,2.87
2022-08-22T10:08:32.878Z,2.53
2022-08-22T10:11:11.225Z,2.60
2022-08-22T10:14:00.492Z,2.47
2022-08-22T10:16:44.280Z,2.50
2022-08-22T10:19:18.777Z,2.63
2022-08-22T10:22:14.377Z,2.33
2022-08-22T10:24:48.985Z,2.50
2022-08-22T10:27:28.939Z,2.37
2022-08-22T10:30:06.466Z,2.50
2022-08-22T10:32:44.201Z,2.57
2022-08-22T10:35:22.590Z,2.67
2022-08-22T10:37:59.068Z,2.50
2022-08-22T10:40:31.521Z,3.20
2022-08-22T10:43:09.312Z,2.93
2022-08-22T10:45:40.652Z,3.20
2022-08-22T10:48:26.560Z,2.50
2022-08-22T10:51:04.030Z,2.60
2022-08-22T10:53:48.328Z,2.40
2022-08-22T10:56:27.362Z,2.00
2022-08-22T10:59:04.892Z,2.85
2022-08-22T11:01:41.853Z,2.50
2022-08-22T11:04:18.114Z,2.30
2022-08-22T11:06:52.211Z,2.40
2022-08-22T11:09:28.610Z,2.50
2022-08-22T11:12:04.416Z,2.30
2022-08-22T11:15:04.363Z,2.60
2022-08-22T11:18:04.662Z,2.42
2022-08-22T11:20:44.782Z,2.27
2022-08-22T11:23:26.306Z,2.30
2022-08-22T11:26:05.131Z,2.00
2022-08-22T11:29:20.194Z,2.40
2022-08-22T11:31:53.996Z,2.50
2022-08-22T11:34:36.475Z,2.30
2022-08-22T11:37:11.596Z,2.37
2022-08-22T11:40:02.000Z,2.38
2022-08-22T11:42:34.127Z,2.50
2022-08-22T11:45:05.560Z,2.70
2022-08-22T11:47:39.471Z,2.30
2022-08-22T11:50:19.003Z,2.30
2022-08-22T11:53:04.619Z,2.50
2022-08-22T11:55:42.148Z,2.03
2022-08-22T11:58:29.403Z,2.53
2022-08-22T12:01:02.711Z,2.33
2022-08-22T12:03:52.443Z,2.27
2022-08-22T12:06:51.341Z,2.60
2022-08-22T12:09:31.922Z,2.40
2022-08-22T12:12:27.080Z,2.27
2022-08-22T12:15:00.205Z,2.53
2022-08-22T12:18:00.981Z,2.50
2022-08-22T12:21:03.608Z,2.10
2022-08-22T12:24:06.157Z,2.10
2022-08-22T12:26:50.320Z,2.30
2022-08-22T12:29:40.056Z,2.83
2022-08-22T12:32:46.386Z,2.47
2022-08-22T12:35:30.109Z,2.67
2022-08-22T12:38:29.309Z,2.38
2022-08-22T12:41:27.817Z,2.45
2022-08-22T12:44:05.218Z,2.13
2022-08-22T12:46:55.451Z,2.40
2022-08-22T12:49:38.457Z,2.22
2022-08-22T12:52:19.844Z,2.10
2022-08-22T12:55:03.613Z,2.40
2022-08-22T12:57:42.448Z,2.20
2022-08-22T13:00:29.394Z,2.13
2022-08-22T13:03:00.563Z,2.40
2022-08-22T13:05:34.259Z,1.90
2022-08-22T13:08:17.577Z,2.37
2022-08-22T13:10:48.417Z,2.00
2022-08-22T13:13:31.579Z,1.90
2022-08-22T13:16:08.198Z,1.83
2022-08-22T13:18:44.796Z,2.30
2022-08-22T13:21:18.166Z,2.27
2022-08-22T13:23:53.126Z,2.20
2022-08-22T13:26:32.209Z,2.28
2022-08-22T13:29:25.157Z,2.70
2022-08-22T13:31:58.976Z,2.20
2022-08-22T13:34:40.064Z,1.90
2022-08-22T13:37:13.085Z,2.07
2022-08-22T13:39:46.702Z,2.23
2022-08-22T13:42:29.732Z,2.30
2022-08-22T13:45:02.474Z,2.47
2022-08-22T13:47:34.392Z,2.50
2022-08-22T13:50:14.441Z,2.17
2022-08-22T13:52:52.346Z,2.57
2022-08-22T13:55:29.953Z,2.53
2022-08-22T13:58:06.898Z,2.37
2022-08-22T14:01:11.746Z,2.20
2022-08-22T14:03:48.784Z,2.10
2022-08-22T14:06:35.550Z,2.30
2022-08-22T14:09:29.459Z,2.40
2022-08-22T14:12:12.190Z,2.27
2022-08-22T14:14:46.017Z,2.27
2022-08-22T14:17:17.601Z,2.50
2022-08-22T14:19:59.031Z,2.20
2022-08-22T14:22:35.188Z,2.20
2022-08-22T14:25:08.578Z,3.00
2022-08-22T14:27:40.221Z,3.33
2022-08-22T14:30:15.679Z,2.40
2022-08-22T14:32:48.265Z,2.30
2022-08-22T14:35:29.253Z,2.33
2022-08-22T14:38:21.052Z,2.50
2022-08-22T14:40:57.894Z,2.90
2022-08-22T14:43:41.785Z,2.60
2022-08-22T14:46:14.219Z,2.30
2022-08-22T14:48:48.209Z,2.20
2022-08-22T14:51:22.202Z,2.43
2022-08-22T14:53:52.185Z,3.10
2022-08-22T14:56:23.307Z,2.27
2022-08-22T14:58:56.905Z,2.50
2022-08-22T15:01:29.962Z,2.40
2022-08-22T15:04:04.628Z,2.50
2022-08-22T15:06:36.744Z,2.30
2022-08-22T15:09:09.125Z,2.43
2022-08-22T15:11:42.251Z,2.33
2022-08-22T15:14:15.937Z,2.70
2022-08-22T15:16:52.466Z,2.30
2022-08-22T15:19:35.181Z,2.67
2022-08-22T15:22:13.672Z,2.50
2022-08-22T15:24:45.991Z,2.43
2022-08-22T15:27:17.971Z,2.53
2022-08-22T15:29:51.441Z,2.10
2022-08-22T15:32:23.438Z,2.37
2022-08-22T15:35:03.558Z,2.37
2022-08-22T15:37:34.414Z,2.33
2022-08-22T15:40:11.885Z,2.43
2022-08-22T15:42:43.371Z,2.43
2022-08-22T15:45:21.265Z,2.60
2022-08-22T15:47:53.648Z,2.57
2022-08-22T15:50:34.296Z,2.47
2022-08-22T15:53:19.563Z,2.50
2022-08-22T15:56:28.330Z,2.27
2022-08-22T15:59:30.362Z,2.80
2022-08-22T16:02:25.557Z,2.60
2022-08-22T16:05:19.960Z,2.17
2022-08-22T16:07:51.940Z,2.60
2022-08-22T16:10:33.039Z,2.67
2022-08-22T16:13:14.714Z,2.60
2022-08-22T16:16:01.210Z,2.27
2022-08-22T16:19:06.634Z,2.57
2022-08-22T16:22:05.161Z,2.50
2022-08-22T16:24:54.919Z,2.40
2022-08-22T16:27:25.104Z,2.90
2022-08-22T16:30:15.461Z,2.60
2022-08-22T16:32:56.528Z,2.70
2022-08-22T16:36:01.827Z,2.63
2022-08-22T16:38:40.940Z,2.70
2022-08-22T16:41:29.849Z,2.93
2022-08-22T16:44:37.862Z,2.60
2022-08-22T16:47:15.734Z,2.60
2022-08-22T16:50:06.746Z,2.53
2022-08-22T16:53:19.449Z,3.00
2022-08-22T16:56:10.766Z,2.87
2022-08-22T16:59:09.906Z,2.80
2022-08-22T17:02:09.061Z,2.70
2022-08-22T17:04:46.242Z,2.70
2022-08-22T17:07:27.598Z,2.87
2022-08-22T17:10:19.480Z,2.97
2022-08-22T17:13:02.853Z,2.80
2022-08-22T17:15:36.410Z,2.73
2022-08-22T17:18:20.693Z,2.90
2022-08-22T17:20:56.355Z,3.00
2022-08-22T17:23:39.417Z,3.17
2022-08-22T17:26:19.866Z,2.40
2022-08-22T17:28:59.572Z,2.93
2022-08-22T17:31:35.979Z,2.57
2022-08-22T17:34:19.107Z,2.53
2022-08-22T17:36:57.920Z,2.90
2022-08-22T17:39:38.497Z,3.33
2022-08-22T17:42:35.385Z,2.93
2022-08-22T17:45:12.554Z,2.80
2022-08-22T17:47:47.162Z,2.60
2022-08-22T17:50:23.843Z,2.80
2022-08-22T17:52:55.924Z,2.70
2022-08-22T17:55:29.775Z,2.83
2022-08-22T17:58:04.174Z,2.93
2022-08-22T18:00:35.533Z,3.00
2022-08-22T18:03:09.610Z,3.07
2022-08-22T18:05:47.258Z,3.17
2022-08-22T18:11:21.318Z,3.50
2022-08-22T18:13:55.986Z,3.37
2022-08-22T18:16:29.518Z,2.77
2022-08-22T18:19:04.488Z,3.20
2022-08-22T18:21:36.659Z,3.57
2022-08-22T18:24:18.139Z,3.50
2022-08-22T18:26:53.962Z,3.00
2022-08-22T18:29:25.991Z,3.57
2022-08-22T18:32:01.344Z,3.67
2022-08-22T18:34:38.323Z,3.30
2022-08-22T18:37:20.909Z,3.77
2022-08-22T18:39:55.324Z,3.87
2022-08-22T18:42:34.217Z,3.50
2022-08-22T18:45:02.113Z,3.77
2022-08-22T18:47:33.032Z,3.50
2022-08-22T18:50:04.342Z,3.47
2022-08-22T18:52:40.481Z,3.97
2022-08-22T18:55:28.072Z,3.40
2022-08-22T18:58:26.526Z,3.70
2022-08-22T19:01:08.559Z,3.40
2022-08-22T19:03:52.481Z,3.77
2022-08-22T19:06:38.169Z,3.57
2022-08-22T19:09:38.895Z,3.40
2022-08-22T19:12:19.207Z,4.10
2022-08-22T19:15:21.313Z,3.40
2022-08-22T19:18:26.926Z,3.40
2022-08-22T19:21:32.593Z,3.50
2022-08-22T19:24:01.445Z,2.93
2022-08-22T19:26:34.388Z,3.40
2022-08-22T19:29:10.612Z,3.17
2022-08-22T19:31:50.612Z,3.10
2022-08-22T19:34:40.983Z,2.80
2022-08-22T19:37:31.762Z,2.80
2022-08-22T19:40:05.309Z,2.80
2022-08-22T19:42:36.418Z,2.80
2022-08-22T19:45:19.395Z,2.90
2022-08-22T19:47:59.024Z,2.70
2022-08-22T19:50:33.793Z,2.93
2022-08-22T19:53:20.138Z,3.03
2022-08-22T19:55:59.393Z,2.50
2022-08-22T19:58:38.305Z,2.67
2022-08-22T20:01:21.679Z,2.80
2022-08-22T20:03:58.674Z,2.73
2022-08-22T20:06:43.902Z,2.83
2022-08-22T20:09:25.614Z,3.03
2022-08-22T20:12:04.385Z,2.80
2022-08-22T20:14:34.433Z,2.70
2022-08-22T20:17:07.468Z,2.57
2022-08-22T20:22:45.226Z,3.00
2022-08-22T20:25:42.957Z,2.80
2022-08-22T20:28:11.691Z,2.57
2022-08-22T20:30:42.825Z,2.50
2022-08-22T20:33:14.573Z,2.60
2022-08-22T20:35:48.527Z,2.60
2022-08-22T20:38:21.228Z,3.00
2022-08-22T20:40:56.117Z,2.70
2022-08-22T20:43:32.789Z,2.97
2022-08-22T20:46:18.812Z,2.87
2022-08-22T20:48:49.740Z,2.60
2022-08-22T20:51:24.215Z,2.70
2022-08-22T20:53:56.934Z,2.70
2022-08-22T20:56:34.259Z,2.97
2022-08-22T20:59:18.834Z,2.93
2022-08-22T21:01:48.490Z,3.10
2022-08-22T21:04:21.726Z,2.80
2022-08-22T21:07:00.553Z,3.00
2022-08-22T21:09:46.394Z,2.80
2022-08-22T21:12:14.715Z,2.53
2022-08-22T21:14:46.193Z,2.90
2022-08-22T21:17:19.145Z,2.87
2022-08-22T21:19:47.698Z,2.80
2022-08-22T21:22:19.937Z,2.70
2022-08-22T21:24:47.842Z,2.80
2022-08-22T21:27:29.294Z,2.80
2022-08-22T21:29:58.582Z,2.77
2022-08-22T21:32:34.376Z,2.83
2022-08-22T21:35:03.980Z,3.07
2022-08-22T21:37:39.642Z,2.80
2022-08-22T21:40:15.954Z,3.10
2022-08-22T21:42:45.911Z,3.10
2022-08-22T21:45:28.108Z,3.10
2022-08-22T21:47:56.343Z,3.37
2022-08-22T21:50:34.559Z,2.60
2022-08-22T21:53:10.168Z,2.93
2022-08-22T21:55:42.907Z,3.20
2022-08-22T21:58:36.014Z,3.10
2022-08-22T22:01:31.299Z,3.10
2022-08-22T22:04:00.814Z,2.60
2022-08-22T22:06:28.821Z,3.10
2022-08-22T22:08:56.680Z,2.80
2022-08-22T22:11:24.567Z,3.13
2022-08-22T22:13:52.512Z,3.00
2022-08-22T22:16:28.288Z,3.50
2022-08-22T22:18:57.836Z,2.80
2022-08-22T22:21:25.701Z,3.00
2022-08-22T22:23:53.890Z,2.83
2022-08-22T22:26:28.538Z,3.00
2022-08-22T22:28:58.567Z,3.00
2022-08-22T22:31:26.577Z,3.20
2022-08-22T22:33:54.402Z,3.27
2022-08-22T22:36:27.492Z,3.10
2022-08-22T22:38:55.678Z,3.30
2022-08-22T22:41:25.553Z,3.10
2022-08-22T22:43:53.727Z,2.63
2022-08-22T22:46:22.373Z,3.20
2022-08-22T22:48:50.678Z,3.03
2022-08-22T22:51:18.563Z,3.30
2022-08-22T22:53:48.326Z,3.20
2022-08-22T22:56:21.299Z,3.10
2022-08-22T22:58:50.582Z,3.20
2022-08-22T23:01:28.382Z,3.30
2022-08-22T23:03:57.416Z,3.13
2022-08-22T23:06:28.002Z,2.90
2022-08-22T23:08:57.949Z,2.90
2022-08-22T23:11:27.938Z,2.93
2022-08-22T23:13:56.510Z,2.90
2022-08-22T23:16:26.891Z,3.27
2022-08-22T23:18:55.371Z,3.00
2022-08-22T23:21:27.068Z,3.10
2022-08-22T23:23:57.533Z,3.10
2022-08-22T23:26:25.726Z,3.23
2022-08-22T23:28:53.816Z,3.20
2022-08-22T23:31:30.094Z,2.90
2022-08-22T23:34:01.730Z,3.67
2022-08-22T23:36:29.796Z,3.03
2022-08-22T23:38:58.926Z,3.60
2022-08-22T23:41:27.104Z,3.23
2022-08-22T23:43:56.029Z,3.27
2022-08-22T23:46:25.707Z,3.40
2022-08-22T23:48:54.132Z,3.20
2022-08-22T23:51:24.573Z,3.63
2022-08-22T23:53:53.069Z,3.37
2022-08-22T23:56:26.951Z,3.40
2022-08-22T23:58:55.069Z,3.17
